Аэропорт
Мацуяма (RJOM)

 RJOM / MYJ

Japan
JP-38
Мацуяма
 33.82720, 132.70000  / 25 ft

 RJOM 182200Z 12007KT 9999 FEW025 SCT/// 20/18 Q1016
 TAF RJOM 181707Z 1818/2000 12005KT 9999 FEW030 BECMG 1822/1900 35009KT BECMG 1909/1912 12006KT BECMG 1921/2000 36006KT

2020 © VATRUS division (Privacy Policy)